Time;durP1;ratioP1;P1;durP2;ratioP2;P2;SDS_P1;SDS_P2;PMS_P1;PMS_P2;Temp;Humidity;BMP_temperature;BMP_pressure;BME280_temperature;BME280_humidity;BME280_pressure;Samples;Min_cycle;Max_cycle;Signal;HPM_P1;HPM_P2
2022/01/26 00:05:44;;;;;;;39.27;15.97;;;;;;;-2.53;100.00;97729.91;5039447;28;20217;-83
2022/01/26 00:06:31;;;;;;;37.63;15.33;;;;;;;-2.75;100.00;97729.81;5037561;28;20331;-83
2022/01/26 00:08:58;;;;;;;33.80;15.53;;;;;;;-2.85;100.00;97728.81;5026197;28;20216;-84
2022/01/26 00:11:30;;;;;;;52.37;16.47;;;;;;;-2.90;100.00;97730.97;5027542;28;20329;-83
2022/01/26 00:13:58;;;;;;;32.10;15.43;;;;;;;-3.03;100.00;97714.31;5022020;28;20205;-84
2022/01/26 00:16:28;;;;;;;52.10;16.90;;;;;;;-3.13;100.00;97717.63;5025378;28;20222;-83
2022/01/26 00:18:59;;;;;;;35.63;15.87;;;;;;;-3.17;100.00;97705.63;5028106;28;20217;-83
2022/01/26 00:21:33;;;;;;;43.80;17.10;;;;;;;-3.19;100.00;97712.81;5026378;28;20274;-84
2022/01/26 00:24:24;;;;;;;37.03;16.80;;;;;;;-3.19;100.00;97710.16;5027312;28;20202;-83
2022/01/26 00:27:24;;;;;;;42.37;17.40;;;;;;;-3.25;100.00;97710.63;5045917;28;20303;-83
2022/01/26 00:30:01;;;;;;;34.10;16.33;;;;;;;-3.30;100.00;97711.88;5022116;28;20203;-83
2022/01/26 00:40:51;;;;;;;32.33;15.27;;;;;;;-3.31;100.00;97700.47;5043996;28;20302;-83
2022/01/26 00:43:23;;;;;;;31.07;15.07;;;;;;;-3.30;100.00;97696.88;5029217;28;20223;-84
2022/01/26 00:45:55;;;;;;;33.60;16.13;;;;;;;-3.32;100.00;97688.25;5044518;28;20206;-83
2022/01/26 00:48:23;;;;;;;32.67;15.47;;;;;;;-3.28;100.00;97679.13;5028517;28;20214;-84
2022/01/26 00:50:52;;;;;;;27.67;14.73;;;;;;;-3.28;100.00;97683.56;5026252;28;20264;-83
2022/01/26 00:53:22;;;;;;;29.17;14.57;;;;;;;-3.30;100.00;97665.19;5045330;28;20218;-83
2022/01/26 00:55:49;;;;;;;26.70;13.93;;;;;;;-3.31;100.00;97667.94;5021528;28;20246;-83
2022/01/26 00:58:17;;;;;;;23.83;13.30;;;;;;;-3.39;100.00;97652.66;5044360;28;20221;-83
2022/01/26 01:00:45;;;;;;;28.40;13.97;;;;;;;-3.44;100.00;97649.53;5022414;28;20230;-83
2022/01/26 01:03:13;;;;;;;26.07;13.67;;;;;;;-3.42;100.00;97639.69;5041194;28;20210;-83
2022/01/26 01:05:47;;;;;;;26.37;12.90;;;;;;;-3.33;100.00;97644.31;5031439;28;20342;-84
2022/01/26 01:08:18;;;;;;;23.40;11.47;;;;;;;-3.25;100.00;97627.88;5037838;28;20222;-83
2022/01/26 01:10:47;;;;;;;19.50;10.20;;;;;;;-3.14;100.00;97625.28;5045484;28;20312;-83
2022/01/26 01:13:18;;;;;;;21.53;11.83;;;;;;;-3.01;100.00;97631.34;5022786;28;20212;-84
2022/01/26 01:15:49;;;;;;;19.80;9.80;;;;;;;-2.96;100.00;97625.69;5024107;28;20315;-83
2022/01/26 01:18:21;;;;;;;17.63;9.10;;;;;;;-2.83;100.00;97623.81;5037293;28;20311;-84
2022/01/26 01:21:13;;;;;;;20.30;9.83;;;;;;;-2.79;100.00;97617.34;5032693;28;20241;-83
2022/01/26 01:24:12;;;;;;;19.50;10.13;;;;;;;-2.75;100.00;97613.50;5044319;28;20206;-83
2022/01/26 01:27:06;;;;;;;15.63;8.03;;;;;;;-2.66;100.00;97610.16;5036751;28;20207;-83
2022/01/26 01:29:39;;;;;;;14.03;7.63;;;;;;;-2.59;100.00;97614.00;5026540;28;20315;-83
2022/01/26 01:32:13;;;;;;;12.47;5.80;;;;;;;-2.56;100.00;97607.66;5039895;28;20232;-84
2022/01/26 01:34:41;;;;;;;12.80;5.37;;;;;;;-2.44;100.00;97604.88;5040249;28;20301;-83
2022/01/26 01:37:13;;;;;;;7.87;4.77;;;;;;;-2.36;100.00;97602.47;5025095;28;20291;-83
2022/01/26 01:39:40;;;;;;;6.70;4.00;;;;;;;-2.35;100.00;97588.31;5040300;28;20282;-83
2022/01/26 01:42:09;;;;;;;8.13;5.00;;;;;;;-2.25;100.00;97585.78;5022842;28;20217;-83
2022/01/26 01:44:37;;;;;;;8.23;5.37;;;;;;;-2.17;100.00;97585.16;5040845;28;20280;-84
2022/01/26 01:47:07;;;;;;;12.40;5.67;;;;;;;-2.13;100.00;97581.34;5022960;28;20368;-82
2022/01/26 01:49:35;;;;;;;10.67;5.47;;;;;;;-2.09;100.00;97585.41;5039054;28;20282;-83
2022/01/26 01:52:05;;;;;;;9.70;5.50;;;;;;;-2.12;100.00;97572.41;5025747;28;20257;-83
2022/01/26 01:54:32;;;;;;;9.17;5.20;;;;;;;-2.10;100.00;97575.78;5023870;28;20225;-84
2022/01/26 01:57:00;;;;;;;9.43;5.10;;;;;;;-2.07;100.00;97581.69;5022557;28;20294;-83
2022/01/26 01:59:33;;;;;;;11.70;6.53;;;;;;;-2.07;100.00;97583.47;5041684;28;20209;-83
2022/01/26 02:02:01;;;;;;;21.17;9.00;;;;;;;-2.14;100.00;97598.16;5042791;28;20208;-83
2022/01/26 02:04:29;;;;;;;20.47;10.60;;;;;;;-2.21;100.00;97589.84;5043438;28;20309;-84
2022/01/26 02:06:57;;;;;;;21.90;10.90;;;;;;;-2.37;100.00;97584.94;5031757;28;20319;-84
2022/01/26 02:09:24;;;;;;;16.07;8.97;;;;;;;-2.40;100.00;97587.84;5043138;28;20284;-84
2022/01/26 02:11:54;;;;;;;19.50;11.70;;;;;;;-2.41;100.00;97596.72;5025165;28;20226;-82
2022/01/26 02:14:27;;;;;;;24.50;12.23;;;;;;;-2.53;100.00;97608.25;5016004;28;20230;-83
2022/01/26 02:17:06;;;;;;;21.57;10.73;;;;;;;-2.61;100.00;97610.63;5043935;28;20222;-83
2022/01/26 02:50:40;;;;;;;45.07;12.97;;;;;;;-2.72;100.00;97627.31;5040054;28;20205;-82
2022/01/26 02:53:29;;;;;;;25.60;13.03;;;;;;;-2.71;100.00;97622.88;5028884;28;20332;-83
2022/01/26 02:56:02;;;;;;;23.10;11.70;;;;;;;-2.77;100.00;97610.97;5041016;28;20275;-83
2022/01/26 02:58:48;;;;;;;29.23;13.10;;;;;;;-2.69;100.00;97621.81;5025058;28;20198;-82
2022/01/26 03:04:07;;;;;;;37.83;13.13;;;;;;;-2.60;100.00;97620.25;5020646;28;20236;-83
2022/01/26 03:06:41;;;;;;;45.83;12.53;;;;;;;-2.66;100.00;97615.44;5043128;28;20222;-83
2022/01/26 03:09:12;;;;;;;58.90;12.70;;;;;;;-2.73;100.00;97619.53;5028000;28;20202;-84
2022/01/26 03:11:44;;;;;;;56.97;11.83;;;;;;;-2.71;100.00;97630.81;5046943;28;20232;-82
2022/01/26 03:14:19;;;;;;;30.67;12.63;;;;;;;-2.66;100.00;97636.59;5027922;28;20234;-83
2022/01/26 03:16:53;;;;;;;53.27;13.40;;;;;;;-2.63;100.00;97625.78;5043764;28;20217;-83
2022/01/26 03:19:23;;;;;;;66.90;12.87;;;;;;;-2.70;100.00;97632.50;5024649;28;20217;-82
2022/01/26 03:22:15;;;;;;;38.73;11.80;;;;;;;-2.84;100.00;97635.34;5027573;28;20228;-83
2022/01/26 03:30:30;;;;;;;22.43;11.57;;;;;;;-2.84;100.00;97619.50;5026226;28;20205;-83
2022/01/26 03:33:11;;;;;;;22.43;11.60;;;;;;;-2.91;100.00;97615.63;5046028;28;20209;-84
2022/01/26 03:35:47;;;;;;;22.47;10.53;;;;;;;-2.81;100.00;97617.47;5046928;28;20202;-83
2022/01/26 03:38:21;;;;;;;22.20;11.17;;;;;;;-2.79;100.00;97630.53;5041233;28;20343;-83
2022/01/26 03:40:57;;;;;;;19.43;10.37;;;;;;;-2.84;100.00;97630.91;5044848;28;20276;-83
2022/01/26 03:43:26;;;;;;;21.90;10.67;;;;;;;-2.84;100.00;97622.97;5034893;28;20226;-83
2022/01/26 03:45:53;;;;;;;20.90;11.47;;;;;;;-2.96;100.00;97621.25;5024225;28;20217;-83
2022/01/26 03:48:20;;;;;;;23.17;10.87;;;;;;;-2.96;100.00;97615.13;5026738;28;20299;-84
2022/01/26 03:50:47;;;;;;;24.50;11.43;;;;;;;-2.94;100.00;97622.00;5030455;28;20204;-84
2022/01/26 03:53:14;;;;;;;22.33;10.70;;;;;;;-2.94;100.00;97623.78;5027780;28;20279;-84
2022/01/26 03:55:41;;;;;;;22.40;9.93;;;;;;;-2.97;100.00;97606.34;5019473;28;20215;-84
2022/01/26 03:58:08;;;;;;;25.37;10.90;;;;;;;-2.93;100.00;97609.63;5028469;28;20295;-82
2022/01/26 04:00:36;;;;;;;20.57;10.57;;;;;;;-2.92;100.00;97611.31;5022379;28;20298;-83
2022/01/26 04:03:03;;;;;;;25.53;10.57;;;;;;;-2.85;100.00;97601.94;5044301;28;20580;-83
2022/01/26 04:05:31;;;;;;;17.20;9.77;;;;;;;-2.79;100.00;97602.31;5024587;28;20208;-83
2022/01/26 04:08:04;;;;;;;17.20;9.33;;;;;;;-2.83;100.00;97589.47;5041424;28;20213;-84
2022/01/26 04:10:42;;;;;;;19.17;9.93;;;;;;;-2.74;100.00;97591.41;5035157;28;20226;-83
2022/01/26 04:13:09;;;;;;;17.30;9.07;;;;;;;-2.73;100.00;97590.44;5044009;28;20223;-83
2022/01/26 04:15:38;;;;;;;18.57;9.43;;;;;;;-2.68;100.00;97594.41;5040382;28;20226;-83
2022/01/26 04:18:09;;;;;;;16.13;8.63;;;;;;;-2.70;100.00;97580.47;5023019;28;20214;-84
2022/01/26 04:20:41;;;;;;;16.87;8.87;;;;;;;-2.65;100.00;97582.75;5025569;28;20210;-83
2022/01/26 04:23:13;;;;;;;15.50;8.60;;;;;;;-2.63;100.00;97579.97;5025047;28;20292;-83
2022/01/26 04:25:42;;;;;;;17.33;8.67;;;;;;;-2.65;100.00;97577.47;5014649;28;20528;-83
2022/01/26 04:28:15;;;;;;;16.77;9.17;;;;;;;-2.57;100.00;97592.75;5041295;28;20215;-84
2022/01/26 04:30:44;;;;;;;14.37;7.50;;;;;;;-2.53;100.00;97586.25;5020383;28;20206;-84
2022/01/26 04:33:11;;;;;;;16.27;8.60;;;;;;;-2.67;100.00;97576.75;5023780;28;20223;-83
2022/01/26 04:35:42;;;;;;;13.57;7.80;;;;;;;-2.69;100.00;97583.94;5041584;28;20227;-84
2022/01/26 04:38:17;;;;;;;13.80;7.73;;;;;;;-2.69;100.00;97584.78;5025450;28;20210;-83
2022/01/26 04:40:53;;;;;;;16.07;8.00;;;;;;;-2.69;100.00;97587.44;5040047;28;20462;-84
2022/01/26 04:43:24;;;;;;;14.50;8.03;;;;;;;-2.66;100.00;97586.38;5027745;28;20214;-84
2022/01/26 04:45:53;;;;;;;16.67;9.67;;;;;;;-2.64;100.00;97576.53;5017369;28;20218;-83
2022/01/26 04:48:20;;;;;;;16.53;8.70;;;;;;;-2.57;100.00;97585.66;5022595;28;20211;-84
2022/01/26 04:50:48;;;;;;;22.53;12.23;;;;;;;-2.69;100.00;97583.94;5023716;28;20243;-83
2022/01/26 04:53:15;;;;;;;18.70;9.37;;;;;;;-2.75;100.00;97581.78;5018017;28;20206;-83
2022/01/26 04:55:42;;;;;;;19.20;9.67;;;;;;;-2.83;100.00;97574.44;5038053;28;20198;-83
2022/01/26 04:58:09;;;;;;;19.93;9.90;;;;;;;-2.77;100.00;97578.41;5039220;28;20312;-83
2022/01/26 05:00:37;;;;;;;19.13;9.90;;;;;;;-2.77;100.00;97584.53;5021417;28;20265;-83
2022/01/26 05:03:05;;;;;;;20.80;9.93;;;;;;;-2.83;100.00;97578.88;5022330;28;20270;-83
2022/01/26 05:05:32;;;;;;;19.57;9.60;;;;;;;-2.80;100.00;97578.63;5021420;28;20234;-83
2022/01/26 05:07:59;;;;;;;16.93;9.37;;;;;;;-2.83;100.00;97570.97;5015110;28;20207;-84
2022/01/26 05:10:27;;;;;;;21.60;9.63;;;;;;;-2.81;100.00;97582.25;5042025;28;20210;-82
2022/01/26 05:12:54;;;;;;;21.43;9.00;;;;;;;-2.80;100.00;97583.91;5035642;28;20343;-83
2022/01/26 05:15:23;;;;;;;20.73;9.53;;;;;;;-2.88;100.00;97586.31;5039964;28;20665;-83
2022/01/26 05:17:51;;;;;;;28.53;9.80;;;;;;;-3.08;100.00;97590.47;5022829;28;20245;-83
2022/01/26 05:20:20;;;;;;;21.60;9.30;;;;;;;-3.05;100.00;97588.44;5011811;28;20276;-83
2022/01/26 05:22:47;;;;;;;27.10;9.33;;;;;;;-3.03;100.00;97598.06;5023977;28;20214;-83
2022/01/26 05:25:14;;;;;;;27.53;10.10;;;;;;;-3.08;100.00;97593.97;5023696;28;20212;-82
2022/01/26 05:27:42;;;;;;;18.40;9.37;;;;;;;-3.11;100.00;97594.19;5019837;28;20210;-82
2022/01/26 05:30:10;;;;;;;25.97;9.67;;;;;;;-3.05;100.00;97598.16;5015400;28;20199;-83
2022/01/26 05:32:37;;;;;;;20.13;9.87;;;;;;;-3.07;100.00;97593.00;5019847;28;20302;-83
2022/01/26 05:35:05;;;;;;;20.57;9.53;;;;;;;-2.95;100.00;97604.44;5016215;28;20217;-83
2022/01/26 05:37:33;;;;;;;25.60;10.23;;;;;;;-2.95;100.00;97606.25;5021301;28;20229;-83
2022/01/26 05:40:02;;;;;;;34.53;11.33;;;;;;;-2.97;100.00;97595.78;5017652;28;20215;-83
2022/01/26 05:42:30;;;;;;;30.73;10.63;;;;;;;-2.86;100.00;97608.19;5022014;28;20262;-83
2022/01/26 05:45:01;;;;;;;39.57;12.83;;;;;;;-2.79;100.00;97610.25;5021461;28;20209;-85
2022/01/26 05:47:31;;;;;;;44.37;10.73;;;;;;;-2.78;100.00;97609.28;5019314;28;20215;-83
2022/01/26 05:49:58;;;;;;;34.90;11.90;;;;;;;-2.80;100.00;97608.56;5019558;28;20217;-83
2022/01/26 05:52:25;;;;;;;30.57;10.93;;;;;;;-2.76;100.00;97614.47;5034669;28;20291;-84
2022/01/26 05:54:54;;;;;;;38.97;11.40;;;;;;;-2.73;100.00;97611.59;5036735;28;20210;-83
2022/01/26 05:57:21;;;;;;;40.87;12.23;;;;;;;-2.68;100.00;97609.44;5020685;28;20223;-83
2022/01/26 05:59:48;;;;;;;31.13;13.27;;;;;;;-2.51;100.00;97629.28;5023639;28;20214;-84
2022/01/26 06:02:15;;;;;;;39.20;12.23;;;;;;;-2.51;100.00;97621.34;5015488;28;20207;-83
2022/01/26 06:04:42;;;;;;;54.87;14.07;;;;;;;-2.62;100.00;97619.53;5020814;28;20234;-83
2022/01/26 06:07:09;;;;;;;33.60;12.23;;;;;;;-2.64;100.00;97620.63;5013283;28;20235;-84
2022/01/26 06:09:36;;;;;;;35.17;13.33;;;;;;;-2.62;100.00;97613.38;5035747;28;20289;-83
2022/01/26 06:12:06;;;;;;;37.60;13.13;;;;;;;-2.67;100.00;97605.81;5040159;28;20240;-84
2022/01/26 06:14:33;;;;;;;23.73;11.47;;;;;;;-2.61;100.00;97615.09;5035777;28;20201;-86
2022/01/26 06:17:00;;;;;;;29.03;10.70;;;;;;;-2.64;100.00;97626.75;5016921;28;20216;-83
2022/01/26 06:19:27;;;;;;;38.70;12.27;;;;;;;-2.75;100.00;97613.50;5040074;28;20210;-83
2022/01/26 06:21:54;;;;;;;24.10;10.63;;;;;;;-2.77;100.00;97610.13;5016250;28;20298;-83
2022/01/26 06:24:21;;;;;;;32.43;11.50;;;;;;;-2.77;100.00;97610.97;5022766;28;20211;-83
2022/01/26 06:26:48;;;;;;;30.83;11.77;;;;;;;-2.84;100.00;97604.47;5036801;28;20215;-83
2022/01/26 06:29:17;;;;;;;24.07;11.73;;;;;;;-2.85;100.00;97601.94;5018787;28;20217;-83
2022/01/26 06:31:45;;;;;;;34.47;11.80;;;;;;;-2.80;100.00;97607.72;5021908;28;20232;-84
2022/01/26 06:34:12;;;;;;;38.50;11.87;;;;;;;-2.87;100.00;97611.78;5023285;28;20196;-83
2022/01/26 06:36:42;;;;;;;42.23;11.57;;;;;;;-2.88;100.00;97621.50;5017506;28;20310;-83
2022/01/26 06:39:10;;;;;;;22.10;11.63;;;;;;;-2.89;100.00;97619.00;5032658;28;20237;-84
2022/01/26 06:41:38;;;;;;;23.37;11.73;;;;;;;-2.85;100.00;97623.94;5022985;28;20199;-84
2022/01/26 06:44:15;;;;;;;24.83;10.73;;;;;;;-2.73;100.00;97632.75;5035367;28;20202;-82
2022/01/26 06:46:53;;;;;;;22.30;10.43;;;;;;;-2.79;100.00;97633.19;5036744;28;20208;-84
2022/01/26 06:49:30;;;;;;;19.07;10.47;;;;;;;-2.78;100.00;97642.81;5013509;28;20203;-84
2022/01/26 06:51:58;;;;;;;18.43;10.70;;;;;;;-2.79;100.00;97638.47;5024889;28;20211;-84
2022/01/26 06:54:26;;;;;;;20.60;10.20;;;;;;;-2.79;100.00;97638.47;5021508;28;20312;-84
2022/01/26 06:56:53;;;;;;;22.20;11.33;;;;;;;-2.79;100.00;97639.31;5024886;28;20225;-84
2022/01/26 06:59:24;;;;;;;19.37;11.07;;;;;;;-2.77;100.00;97652.44;5035766;28;20279;-84
2022/01/26 07:01:53;;;;;;;19.97;10.40;;;;;;;-2.75;100.00;97661.09;5014696;28;20202;-83
2022/01/26 07:04:20;;;;;;;18.83;10.27;;;;;;;-2.71;100.00;97658.09;5015531;28;20207;-84
2022/01/26 07:06:47;;;;;;;21.53;10.43;;;;;;;-2.63;100.00;97669.88;5032004;28;20303;-84
2022/01/26 07:09:16;;;;;;;21.77;10.13;;;;;;;-2.62;100.00;97666.28;5026678;28;20219;-84
2022/01/26 07:11:43;;;;;;;19.87;10.40;;;;;;;-2.67;100.00;97675.41;5043345;28;20234;-84
2022/01/26 07:14:11;;;;;;;20.20;9.67;;;;;;;-2.65;100.00;97669.19;5024875;28;20206;-83
2022/01/26 07:22:08;;;;;;;21.53;11.40;;;;;;;-2.61;100.00;97697.91;5026322;28;20206;-85
2022/01/26 07:24:35;;;;;;;26.30;11.20;;;;;;;-2.58;100.00;97700.31;5025781;28;20210;-84
2022/01/26 07:27:03;;;;;;;21.83;10.93;;;;;;;-2.53;100.00;97690.22;5042523;28;20312;-84
2022/01/26 07:29:31;;;;;;;21.73;11.07;;;;;;;-2.51;100.00;97698.03;5029091;28;20224;-85
2022/01/26 07:31:59;;;;;;;24.50;10.77;;;;;;;-2.56;100.00;97698.41;5024730;28;20213;-85
2022/01/26 07:34:27;;;;;;;32.87;10.63;;;;;;;-2.64;100.00;97706.09;5027792;28;20215;-86
2022/01/26 07:37:00;;;;;;;21.57;10.07;;;;;;;-2.62;100.00;97701.50;5028165;28;20294;-85
2022/01/26 07:39:41;;;;;;;26.10;11.10;;;;;;;-2.62;100.00;97688.28;5042588;28;20218;-85
2022/01/26 07:42:10;;;;;;;32.13;11.97;;;;;;;-2.60;100.00;97698.75;5044276;28;20212;-85
2022/01/26 07:44:45;;;;;;;27.90;11.50;;;;;;;-2.63;100.00;97697.16;5034866;28;20202;-84
2022/01/26 07:47:12;;;;;;;27.07;12.70;;;;;;;-2.59;100.00;97693.34;5048218;28;20662;-85
2022/01/26 07:49:41;;;;;;;51.03;12.27;;;;;;;-2.61;100.00;97684.69;5025880;28;20207;-84
2022/01/26 07:52:08;;;;;;;36.57;13.03;;;;;;;-2.72;100.00;97677.53;5043363;28;20210;-85
2022/01/26 07:54:35;;;;;;;30.23;13.10;;;;;;;-2.72;100.00;97679.34;5026204;28;20203;-85
2022/01/26 07:57:02;;;;;;;111.47;29.93;;;;;;;-2.69;100.00;97681.78;5044521;28;20273;-85
2022/01/26 07:59:29;;;;;;;57.83;16.53;;;;;;;-2.77;100.00;97679.72;5022519;28;20282;-86
2022/01/26 08:01:57;;;;;;;35.67;13.43;;;;;;;-2.81;100.00;97683.56;5025383;28;20265;-85
2022/01/26 08:04:24;;;;;;;37.10;13.97;;;;;;;-2.90;100.00;97664.91;5028726;28;20488;-85
2022/01/26 08:06:52;;;;;;;34.70;13.27;;;;;;;-2.93;100.00;97667.75;5030148;28;20337;-86
2022/01/26 08:09:19;;;;;;;29.47;13.40;;;;;;;-2.94;100.00;97668.72;5038176;28;20213;-84
2022/01/26 08:11:46;;;;;;;30.80;13.67;;;;;;;-2.98;100.00;97654.06;5024561;28;20242;-86
2022/01/26 08:14:13;;;;;;;24.83;12.50;;;;;;;-3.02;100.00;97640.22;5039321;28;20217;-84
2022/01/26 08:16:41;;;;;;;27.47;13.67;;;;;;;-3.03;100.00;97640.31;5040159;28;20207;-85
2022/01/26 08:19:08;;;;;;;31.87;13.53;;;;;;;-3.05;100.00;97633.34;5026827;28;20303;-84
2022/01/26 08:21:35;;;;;;;30.23;14.10;;;;;;;-3.03;100.00;97624.47;5024579;28;20218;-86
2022/01/26 08:24:12;;;;;;;27.17;13.17;;;;;;;-3.03;100.00;97625.31;5022545;28;20199;-85
2022/01/26 08:26:43;;;;;;;24.00;12.37;;;;;;;-2.93;100.00;97628.97;5019436;28;20215;-84
2022/01/26 08:29:16;;;;;;;28.83;13.23;;;;;;;-2.85;100.00;97634.50;5043251;28;20216;-86
2022/01/26 08:31:43;;;;;;;28.17;12.73;;;;;;;-2.80;100.00;97635.00;5027736;28;20195;-85
2022/01/26 08:34:10;;;;;;;24.70;13.50;;;;;;;-2.75;100.00;97634.66;5022564;28;20204;-85
2022/01/26 08:36:38;;;;;;;28.87;14.77;;;;;;;-2.72;100.00;97635.25;5036414;28;20228;-85
2022/01/26 08:39:07;;;;;;;34.57;14.23;;;;;;;-2.76;100.00;97641.75;5036822;28;20237;-84
2022/01/26 08:41:34;;;;;;;31.63;12.00;;;;;;;-2.74;100.00;97652.22;5043147;28;20213;-84
2022/01/26 08:44:02;;;;;;;28.03;12.83;;;;;;;-2.73;100.00;97653.91;5030103;28;20240;-85
2022/01/26 08:46:29;;;;;;;36.60;12.00;;;;;;;-2.74;100.00;97665.44;5029270;28;20213;-84
2022/01/26 08:48:56;;;;;;;34.03;13.03;;;;;;;-2.72;100.00;97666.97;5042257;28;20210;-86
2022/01/26 08:51:23;;;;;;;28.70;13.77;;;;;;;-2.74;100.00;97679.50;5014173;28;20294;-85
2022/01/26 08:53:51;;;;;;;26.73;12.03;;;;;;;-2.76;100.00;97677.91;5042927;28;20222;-86
2022/01/26 08:56:19;;;;;;;26.80;12.20;;;;;;;-2.71;100.00;97678.38;5020674;28;20204;-86
2022/01/26 08:58:46;;;;;;;41.73;13.70;;;;;;;-2.63;100.00;97677.81;5042018;28;20232;-84
2022/01/26 09:01:13;;;;;;;22.93;12.17;;;;;;;-2.50;100.00;97687.34;5024729;28;20213;-85
2022/01/26 09:03:41;;;;;;;34.43;11.57;;;;;;;-2.39;100.00;97694.47;5023352;28;20196;-84
2022/01/26 09:06:09;;;;;;;23.67;11.50;;;;;;;-2.32;100.00;97690.41;5023510;28;20218;-84
2022/01/26 09:08:38;;;;;;;23.63;11.43;;;;;;;-2.23;100.00;97676.47;5044152;28;20217;-86
2022/01/26 09:11:06;;;;;;;26.67;11.23;;;;;;;-2.08;100.00;97682.38;5018741;28;20234;-83
2022/01/26 09:13:35;;;;;;;20.57;10.97;;;;;;;-2.10;100.00;97678.97;5031979;28;20206;-85
2022/01/26 09:16:06;;;;;;;23.60;10.93;;;;;;;-1.98;100.00;97693.91;5042242;28;20213;-84
2022/01/26 09:18:40;;;;;;;28.13;10.67;;;;;;;-1.86;100.00;97697.41;5033781;28;20241;-86
2022/01/26 09:21:07;;;;;;;22.83;11.43;;;;;;;-1.76;100.00;97693.91;5046977;28;20210;-85
2022/01/26 09:23:34;;;;;;;29.17;15.47;;;;;;;-1.72;100.00;97711.25;5029587;28;20297;-85
2022/01/26 09:26:02;;;;;;;28.77;14.83;;;;;;;-1.74;100.00;97710.53;5023782;28;20275;-85
2022/01/26 09:28:29;;;;;;;27.13;14.17;;;;;;;-1.65;100.00;97717.75;5040954;28;20247;-84
2022/01/26 09:30:57;;;;;;;25.97;13.30;;;;;;;-1.60;100.00;97714.72;5023859;28;20201;-85
2022/01/26 09:33:24;;;;;;;25.03;12.50;;;;;;;-1.55;100.00;97718.72;5033126;28;20301;-85
2022/01/26 09:35:51;;;;;;;24.70;11.40;;;;;;;-1.55;100.00;97731.97;5032785;28;20339;-84
2022/01/26 09:38:18;;;;;;;22.70;11.60;;;;;;;-1.54;100.00;97731.00;5025101;28;20246;-84
2022/01/26 09:40:48;;;;;;;18.47;10.50;;;;;;;-1.47;100.00;97728.69;5046045;28;20233;-86
2022/01/26 09:43:16;;;;;;;25.57;12.57;;;;;;;-1.42;100.00;97734.44;5031195;28;20206;-84
2022/01/26 09:45:43;;;;;;;23.07;11.93;;;;;;;-1.27;100.00;97737.69;5028034;28;20357;-83
2022/01/26 09:48:13;;;;;;;26.70;12.73;;;;;;;-1.25;100.00;97728.66;5028201;28;20189;-84
2022/01/26 09:50:43;;;;;;;22.17;12.50;;;;;;;-1.35;100.00;97745.41;5034568;28;20209;-83
2022/01/26 09:53:12;;;;;;;22.93;11.43;;;;;;;-1.40;100.00;97743.13;5032308;28;20205;-85
2022/01/26 09:55:42;;;;;;;18.60;11.57;;;;;;;-1.38;100.00;97743.00;5029687;28;20214;-84
2022/01/26 09:58:09;;;;;;;21.93;12.23;;;;;;;-1.34;100.00;97733.84;5046623;28;20445;-84
2022/01/26 10:00:37;;;;;;;26.77;14.13;;;;;;;-1.16;100.00;97727.06;5035078;28;20209;-84
2022/01/26 10:03:06;;;;;;;22.07;12.67;;;;;;;-1.08;100.00;97724.63;5028836;28;20298;-86
2022/01/26 10:05:42;;;;;;;22.27;12.63;;;;;;;-1.13;100.00;97733.94;5025557;28;20201;-85
2022/01/26 10:08:24;;;;;;;22.63;12.87;;;;;;;-1.16;100.00;97735.84;5044424;28;20208;-85
2022/01/26 10:19:19;;;;;;;23.70;12.10;;;;;;;-0.68;100.00;97724.03;5024998;28;20226;-84
2022/01/26 10:21:49;;;;;;;21.57;12.10;;;;;;;-0.62;100.00;97708.44;5045220;28;20233;-86
2022/01/26 10:24:16;;;;;;;23.03;11.37;;;;;;;-0.60;100.00;97710.97;5045028;28;20255;-84
2022/01/26 10:26:49;;;;;;;20.77;11.63;;;;;;;-0.54;100.00;97699.84;5034810;28;20254;-85
2022/01/26 10:29:17;;;;;;;22.17;11.87;;;;;;;-0.43;100.00;97687.38;5026714;28;20233;-86
2022/01/26 10:31:44;;;;;;;20.97;11.17;;;;;;;-0.41;100.00;97690.72;5032571;28;20210;-85
2022/01/26 10:34:13;;;;;;;21.17;12.07;;;;;;;-0.30;100.00;97681.84;5035363;28;20210;-87
2022/01/26 10:36:42;;;;;;;21.73;11.53;;;;;;;-0.09;100.00;97685.34;5038162;28;20205;-85
2022/01/26 10:39:14;;;;;;;24.63;12.80;;;;;;;0.22;100.00;97680.03;5052641;28;20226;-86
2022/01/26 10:41:45;;;;;;;18.73;11.87;;;;;;;0.31;100.00;97676.56;5044075;28;20217;-86
2022/01/26 10:44:12;;;;;;;21.10;11.70;;;;;;;0.60;100.00;97666.84;5023233;28;20241;-85
2022/01/26 10:46:42;;;;;;;16.83;10.27;;;;;;;0.94;100.00;97663.81;5049762;28;20205;-88
2022/01/26 10:49:19;;;;;;;19.43;10.73;;;;;;;1.14;100.00;97666.38;5025920;28;20201;-86
2022/01/26 10:51:56;;;;;;;17.60;10.00;;;;;;;1.37;100.00;97666.94;5059202;28;20301;-87
2022/01/26 10:54:36;;;;;;;19.57;10.77;;;;;;;1.70;100.00;97651.50;5030392;28;20210;-87
2022/01/26 10:57:04;;;;;;;18.63;11.20;;;;;;;2.10;100.00;97648.56;5030560;28;20224;-85
2022/01/26 10:59:33;;;;;;;16.40;9.50;;;;;;;2.18;100.00;97656.69;5029313;28;20229;-85
2022/01/26 11:02:02;;;;;;;15.47;8.90;;;;;;;2.11;100.00;97653.75;5024978;28;20243;-85
2022/01/26 11:04:30;;;;;;;16.90;10.67;;;;;;;2.18;100.00;97660.19;5051755;28;20298;-87
2022/01/26 11:06:57;;;;;;;16.03;10.50;;;;;;;2.36;100.00;97659.41;5028162;28;20290;-86
2022/01/26 11:09:30;;;;;;;19.57;10.77;;;;;;;2.54;100.00;97662.97;5034020;28;20567;-86
2022/01/26 11:12:01;;;;;;;18.10;10.63;;;;;;;2.86;100.00;97658.00;5045597;28;20230;-88
2022/01/26 11:14:40;;;;;;;19.87;10.40;;;;;;;3.01;100.00;97651.16;5043999;28;20259;-85
2022/01/26 11:17:07;;;;;;;22.23;10.67;;;;;;;3.13;100.00;97656.28;5038358;28;20263;-84
2022/01/26 11:19:45;;;;;;;16.67;10.63;;;;;;;3.15;100.00;97649.78;5015471;28;20222;-87
2022/01/26 11:22:14;;;;;;;18.90;10.73;;;;;;;3.39;100.00;97651.84;5047259;28;20220;-87
2022/01/26 11:24:48;;;;;;;25.07;11.53;;;;;;;3.62;100.00;97649.53;5027729;28;20202;-89
2022/01/26 11:27:17;;;;;;;17.13;10.77;;;;;;;3.73;100.00;97641.28;5036860;28;20240;-86
2022/01/26 11:29:48;;;;;;;16.70;9.23;;;;;;;3.98;100.00;97636.94;5015701;28;20290;-88
2022/01/26 11:32:21;;;;;;;20.43;10.13;;;;;;;4.01;100.00;97629.41;5029109;28;20225;-86
2022/01/26 11:34:51;;;;;;;16.13;9.70;;;;;;;4.26;100.00;97617.03;5031106;28;20206;-83
2022/01/26 11:37:26;;;;;;;14.40;9.30;;;;;;;4.53;100.00;97619.47;5045986;28;20214;-82
2022/01/26 11:45:34;;;;;;;13.47;9.47;;;;;;;4.35;100.00;97658.84;5025067;28;20209;-87
2022/01/26 11:48:05;;;;;;;15.47;9.70;;;;;;;4.18;100.00;97651.72;5031739;28;20292;-88
2022/01/26 11:50:33;;;;;;;21.73;10.27;;;;;;;4.24;100.00;97648.44;5019560;28;20214;-88
2022/01/26 11:53:02;;;;;;;18.20;9.60;;;;;;;4.32;100.00;97631.59;5029064;28;20214;-88
2022/01/26 11:55:40;;;;;;;20.80;9.90;;;;;;;4.33;100.00;97625.25;5031346;28;20206;-86
2022/01/26 11:58:09;;;;;;;16.07;9.23;;;;;;;4.50;100.00;97614.47;5040746;28;20211;-85
2022/01/26 12:00:43;;;;;;;12.97;9.20;;;;;;;4.46;100.00;97605.09;5041314;28;20336;-86
2022/01/26 12:03:20;;;;;;;15.53;8.90;;;;;;;4.22;100.00;97604.16;5029463;28;20261;-88
2022/01/26 12:05:49;;;;;;;19.30;9.37;;;;;;;3.90;100.00;97594.97;5029041;28;20214;-85
2022/01/26 12:08:28;;;;;;;14.87;8.83;;;;;;;3.46;100.00;97591.50;5032390;28;20217;-86
2022/01/26 12:10:57;;;;;;;16.07;8.30;;;;;;;3.66;100.00;97584.09;5042002;28;20262;-87
2022/01/26 12:13:27;;;;;;;24.20;8.93;;;;;;;3.90;100.00;97584.28;5025365;28;20310;-87
2022/01/26 12:15:57;;;;;;;11.30;7.43;;;;;;;4.11;100.00;97571.34;5028279;28;20207;-88
2022/01/26 12:18:32;;;;;;;15.30;10.00;;;;;;;4.50;100.00;97577.03;5030074;28;20207;-89
2022/01/26 12:32:46;;;;;;;11.93;8.53;;;;;;;5.61;97.35;97538.09;5025374;28;20297;-86
2022/01/26 12:35:28;;;;;;;12.40;8.53;;;;;;;5.59;97.39;97547.34;5020849;28;20221;-86
2022/01/26 12:38:00;;;;;;;18.63;9.90;;;;;;;5.47;98.98;97556.72;5032190;28;20267;-88
2022/01/26 12:43:18;;;;;;;15.57;10.10;;;;;;;4.94;100.00;97550.00;5025633;28;20222;-88
2022/01/26 12:45:47;;;;;;;20.17;10.47;;;;;;;4.76;100.00;97554.69;5022668;28;20333;-88
2022/01/26 12:48:17;;;;;;;14.20;9.87;;;;;;;4.35;100.00;97541.19;5029943;28;20210;-90
2022/01/26 12:50:44;;;;;;;16.30;9.20;;;;;;;4.35;100.00;97557.22;5030481;28;20203;-88